Time;durP1;ratioP1;P1;durP2;ratioP2;P2;SDS_P1;SDS_P2;PMS_P1;PMS_P2;Temp;Humidity;BMP_temperature;BMP_pressure;BME280_temperature;BME280_humidity;BME280_pressure;Samples;Min_cycle;Max_cycle;Signal;HPM_P1;HPM_P2
2023/04/24 00:02:04;;;;;;;4.03;1.48;;;18.00;51.30;;;;;;20831047;28;20046;-59
2023/04/24 00:12:05;;;;;;;4.72;1.40;;;17.90;52.00;;;;;;20831824;28;20419;-61
2023/04/24 00:22:07;;;;;;;5.57;1.45;;;17.80;52.30;;;;;;20832175;28;20053;-58
2023/04/24 00:32:08;;;;;;;3.30;1.52;;;17.70;52.70;;;;;;20829635;28;20056;-60
2023/04/24 00:42:09;;;;;;;6.47;1.55;;;17.60;53.20;;;;;;20829919;28;20079;-59
2023/04/24 00:52:12;;;;;;;3.05;1.00;;;17.60;53.50;;;;;;20829279;28;20041;-59
2023/04/24 01:02:15;;;;;;;4.22;1.23;;;17.50;53.40;;;;;;20829804;28;20072;-59
2023/04/24 01:12:17;;;;;;;2.30;1.20;;;17.40;53.50;;;;;;20834172;28;20061;-59
2023/04/24 01:22:18;;;;;;;1.95;1.02;;;17.30;53.80;;;;;;20845073;28;20438;-59
2023/04/24 01:32:20;;;;;;;2.88;1.17;;;17.20;54.60;;;;;;20844352;28;20045;-60
2023/04/24 01:42:21;;;;;;;2.70;1.00;;;17.10;54.90;;;;;;20843356;28;20050;-59
2023/04/24 01:52:23;;;;;;;3.15;1.25;;;17.00;55.20;;;;;;20843090;28;20046;-59
2023/04/24 02:02:27;;;;;;;2.70;1.45;;;17.00;55.50;;;;;;20843212;28;20407;-58
2023/04/24 02:12:28;;;;;;;3.33;1.45;;;16.90;55.80;;;;;;20843008;28;20060;-58
2023/04/24 02:22:30;;;;;;;5.63;1.60;;;16.80;56.00;;;;;;20841039;28;20050;-58
2023/04/24 02:32:31;;;;;;;2.17;0.95;;;16.80;56.20;;;;;;20841551;28;20095;-59
2023/04/24 02:42:33;;;;;;;2.95;1.20;;;16.70;56.40;;;;;;20839826;28;20061;-58
2023/04/24 02:52:34;;;;;;;3.45;1.20;;;16.80;56.50;;;;;;20840120;28;20092;-59
2023/04/24 03:02:36;;;;;;;1.95;1.10;;;16.70;57.10;;;;;;20838759;28;20057;-59
2023/04/24 03:12:37;;;;;;;3.60;1.13;;;16.70;57.20;;;;;;20837178;28;20115;-58
2023/04/24 03:22:38;;;;;;;2.70;1.42;;;16.60;57.50;;;;;;20836346;28;20049;-59
2023/04/24 03:32:40;;;;;;;2.78;1.30;;;16.60;57.50;;;;;;20836349;28;20045;-58
2023/04/24 03:42:41;;;;;;;2.85;1.17;;;16.50;57.60;;;;;;20834486;28;20045;-59
2023/04/24 03:52:43;;;;;;;2.90;1.30;;;16.40;57.90;;;;;;20835087;28;20438;-59
2023/04/24 04:02:44;;;;;;;3.88;1.60;;;16.30;58.40;;;;;;20834049;28;20453;-60
2023/04/24 04:12:45;;;;;;;3.72;1.50;;;16.20;58.70;;;;;;20832341;28;20060;-59
2023/04/24 04:22:47;;;;;;;6.65;1.77;;;16.30;58.50;;;;;;20831383;28;20144;-60
2023/04/24 04:32:48;;;;;;;3.88;1.50;;;16.20;58.80;;;;;;20831748;28;20049;-60
2023/04/24 04:42:52;;;;;;;3.60;1.63;;;16.00;59.10;;;;;;20830233;28;20046;-59
2023/04/24 04:52:54;;;;;;;6.43;2.67;;;16.00;59.20;;;;;;20829493;28;20042;-59
2023/04/24 05:02:55;;;;;;;4.35;2.22;;;15.90;59.40;;;;;;20827779;28;20046;-59
2023/04/24 05:12:56;;;;;;;4.63;2.10;;;15.90;59.50;;;;;;20827726;28;20054;-58
2023/04/24 05:22:58;;;;;;;7.22;2.05;;;15.80;59.70;;;;;;20830704;28;20486;-58
2023/04/24 05:32:59;;;;;;;4.95;2.38;;;15.80;59.80;;;;;;20827057;28;20072;-59
2023/04/24 05:43:00;;;;;;;7.03;2.60;;;15.80;59.70;;;;;;20827733;28;20049;-59
2023/04/24 05:53:02;;;;;;;5.65;2.50;;;15.90;60.00;;;;;;20827525;28;20099;-60
2023/04/24 06:03:03;;;;;;;4.38;2.80;;;15.80;60.40;;;;;;20837673;28;20045;-60
2023/04/24 06:13:04;;;;;;;7.50;3.20;;;15.90;60.30;;;;;;20841149;28;20053;-59
2023/04/24 06:23:06;;;;;;;7.78;3.47;;;16.00;60.50;;;;;;20838818;28;20057;-59
2023/04/24 06:33:07;;;;;;;9.55;3.78;;;16.10;59.60;;;;;;20839112;28;20049;-60
2023/04/24 06:43:09;;;;;;;8.15;4.38;;;16.30;59.30;;;;;;20839268;28;20045;-60
2023/04/24 06:53:12;;;;;;;10.60;4.65;;;16.60;58.40;;;;;;20838434;28;20052;-60
2023/04/24 07:03:13;;;;;;;10.13;4.93;;;16.80;58.30;;;;;;20836748;28;20053;-59
2023/04/24 07:13:15;;;;;;;10.07;4.70;;;17.10;57.50;;;;;;20834867;28;20041;-60
2023/04/24 07:23:17;;;;;;;5.70;3.35;;;17.60;55.70;;;;;;20835193;28;20049;-61
2023/04/24 07:33:18;;;;;;;5.63;2.63;;;18.10;53.10;;;;;;20834926;28;20052;-59
2023/04/24 07:43:20;;;;;;;3.80;2.10;;;18.60;52.00;;;;;;20834257;28;20059;-58
2023/04/24 07:53:21;;;;;;;7.55;2.97;;;19.00;50.10;;;;;;20833067;28;20051;-59
2023/04/24 08:03:24;;;;;;;3.35;1.88;;;19.40;49.60;;;;;;20832686;28;20457;-58
2023/04/24 08:13:25;;;;;;;5.85;1.90;;;19.70;47.70;;;;;;20832112;28;20049;-58
2023/04/24 08:23:26;;;;;;;3.85;1.73;;;19.90;47.30;;;;;;20831678;28;20136;-58
2023/04/24 08:33:33;;;;;;;5.20;2.33;;;20.00;46.80;;;;;;20830462;28;20045;-59
2023/04/24 08:43:36;;;;;;;3.55;1.30;;;20.10;46.40;;;;;;20829993;28;20060;-58
2023/04/24 08:53:38;;;;;;;5.00;2.40;;;20.30;46.00;;;;;;20828393;28;20045;-59
2023/04/24 09:03:39;;;;;;;7.13;1.75;;;20.40;45.20;;;;;;20829122;28;20053;-58
2023/04/24 09:13:42;;;;;;;3.08;1.60;;;20.60;45.00;;;;;;20827431;28;20045;-59
2023/04/24 09:23:43;;;;;;;9.73;7.07;;;20.60;44.30;;;;;;20828074;28;20068;-59
2023/04/24 09:33:53;;;;;;;11.32;2.00;;;20.80;44.20;;;;;;20834139;28;20470;-59
2023/04/24 09:43:56;;;;;;;3.42;2.00;;;21.00;43.70;;;;;;20843956;28;20049;-59
2023/04/24 09:53:57;;;;;;;4.07;1.70;;;21.10;43.80;;;;;;20843372;28;20489;-60
2023/04/24 10:03:58;;;;;;;8.27;2.05;;;21.20;43.70;;;;;;20842803;28;20053;-59
2023/04/24 10:14:01;;;;;;;3.90;1.70;;;21.40;42.80;;;;;;20840305;28;20049;-59
2023/04/24 10:24:04;;;;;;;3.70;1.80;;;21.50;42.70;;;;;;20840798;28;20056;-59
2023/04/24 10:34:07;;;;;;;3.78;1.70;;;21.60;42.40;;;;;;20839178;28;20047;-59
2023/04/24 10:44:10;;;;;;;3.72;1.52;;;21.80;41.50;;;;;;20838669;28;20140;-60
2023/04/24 10:54:23;;;;;;;;;;;21.90;41.30;;;;;;20839655;28;20041;-61
2023/04/24 11:04:32;;;;;;;4.80;2.35;;;22.10;40.50;;;;;;20837262;28;19921;-61
2023/04/24 11:14:56;;;;;;;3.70;1.50;;;22.20;39.30;;;;;;20837498;28;20076;-60
2023/04/24 11:25:02;;;;;;;4.70;1.33;;;22.60;39.90;;;;;;20836963;28;20095;-62
2023/04/24 11:35:14;;;;;;;3.58;1.70;;;22.70;38.20;;;;;;20836017;28;20046;-59
2023/04/24 11:45:24;;;;;;;3.50;1.17;;;22.80;39.20;;;;;;20834026;28;20045;-60
2023/04/24 11:55:27;;;;;;;3.85;1.40;;;22.90;36.30;;;;;;20833282;28;20311;-59
2023/04/24 12:05:31;;;;;;;3.60;1.90;;;22.90;36.80;;;;;;20833340;28;20045;-61
2023/04/24 12:15:32;;;;;;;3.08;1.35;;;23.30;36.60;;;;;;20831386;28;20066;-61
2023/04/24 12:25:34;;;;;;;7.90;4.35;;;23.30;35.60;;;;;;20831358;28;20053;-61
2023/04/24 12:35:36;;;;;;;6.17;1.73;;;23.30;35.20;;;;;;20830307;28;20491;-61
2023/04/24 12:45:37;;;;;;;3.13;1.40;;;23.50;35.70;;;;;;20831110;28;20049;-59
2023/04/24 12:55:38;;;;;;;2.08;1.40;;;23.80;34.90;;;;;;20828877;28;20045;-59
2023/04/24 13:05:42;;;;;;;2.80;1.13;;;23.90;34.70;;;;;;20829985;28;20050;-59
2023/04/24 13:15:43;;;;;;;2.92;1.60;;;23.90;34.00;;;;;;20846573;28;20403;-60
2023/04/24 13:25:44;;;;;;;4.57;1.60;;;24.00;34.00;;;;;;20845856;28;20049;-60
2023/04/24 13:35:46;;;;;;;4.10;1.60;;;24.20;33.80;;;;;;20844160;28;20052;-60
2023/04/24 13:45:47;;;;;;;2.70;1.35;;;24.40;32.80;;;;;;20844166;28;20061;-60
2023/04/24 13:55:48;;;;;;;3.45;1.20;;;24.60;32.60;;;;;;20842296;28;20053;-60
2023/04/24 14:05:50;;;;;;;3.20;1.00;;;24.80;32.50;;;;;;20841454;28;20053;-59
2023/04/24 14:15:52;;;;;;;3.17;1.30;;;24.80;30.50;;;;;;20840861;28;20495;-61
2023/04/24 14:25:54;;;;;;;2.33;0.88;;;25.00;30.40;;;;;;20839677;28;20056;-59
2023/04/24 14:35:55;;;;;;;6.63;1.20;;;25.10;30.90;;;;;;20840727;28;20453;-60
2023/04/24 14:45:57;;;;;;;2.63;1.40;;;25.20;30.30;;;;;;20838821;28;20167;-61
2023/04/24 14:55:58;;;;;;;4.80;1.40;;;25.50;29.90;;;;;;20838702;28;20049;-61
2023/04/24 15:06:00;;;;;;;3.40;1.27;;;25.60;29.90;;;;;;20838172;28;20068;-60
2023/04/24 15:16:02;;;;;;;6.43;1.50;;;25.60;29.50;;;;;;20837009;28;20061;-62
2023/04/24 15:26:03;;;;;;;5.43;1.80;;;25.60;29.30;;;;;;20836491;28;20502;-60
2023/04/24 15:36:05;;;;;;;4.47;1.40;;;25.70;29.70;;;;;;20834343;28;20057;-62
2023/04/24 15:46:07;;;;;;;3.97;1.83;;;25.80;29.30;;;;;;20834155;28;20045;-60
2023/04/24 15:56:09;;;;;;;2.63;0.93;;;25.60;29.30;;;;;;20833592;28;20049;-57
2023/04/24 16:06:10;;;;;;;3.75;1.20;;;25.70;29.40;;;;;;20826465;28;20100;-56
2023/04/24 16:16:12;;;;;;;2.43;1.30;;;25.50;30.20;;;;;;20832574;28;20134;-60
2023/04/24 16:26:14;;;;;;;5.93;1.50;;;25.50;30.10;;;;;;20832197;28;20411;-57
2023/04/24 16:36:16;;;;;;;3.10;1.85;;;25.60;30.50;;;;;;20831273;28;20498;-58
2023/04/24 16:46:17;;;;;;;5.43;3.93;;;25.80;30.30;;;;;;20831135;28;20422;-56
2023/04/24 16:56:18;;;;;;;3.43;1.20;;;25.60;31.00;;;;;;20829306;28;20505;-57
2023/04/24 17:06:20;;;;;;;3.30;1.37;;;25.30;30.90;;;;;;20829515;28;20046;-56
2023/04/24 17:16:22;;;;;;;3.90;1.60;;;25.40;31.10;;;;;;20823787;28;20318;-56
2023/04/24 17:26:23;;;;;;;4.37;2.60;;;25.40;31.30;;;;;;20821965;28;20041;-58
2023/04/24 17:36:24;;;;;;;2.17;1.10;;;25.30;31.70;;;;;;20820568;28;20050;-59
2023/04/24 17:46:26;;;;;;;5.13;3.90;;;25.20;31.70;;;;;;20827926;28;20301;-57
2023/04/24 17:56:27;;;;;;;1.97;1.07;;;25.10;32.10;;;;;;20835497;28;20053;-57
2023/04/24 18:06:29;;;;;;;4.00;1.80;;;25.10;31.90;;;;;;20842173;28;20049;-57
2023/04/24 18:16:30;;;;;;;5.00;1.60;;;25.00;32.40;;;;;;20840031;28;20061;-58
2023/04/24 18:26:31;;;;;;;2.23;1.27;;;24.90;32.50;;;;;;20840121;28;20447;-58
2023/04/24 18:36:33;;;;;;;3.73;2.00;;;24.70;32.90;;;;;;20838495;28;20068;-57
2023/04/24 18:46:37;;;;;;;2.90;1.83;;;24.60;33.00;;;;;;20839143;28;20099;-58
2023/04/24 18:56:38;;;;;;;3.90;1.77;;;24.40;33.10;;;;;;20837162;28;20099;-60
2023/04/24 19:06:40;;;;;;;7.87;2.13;;;24.20;33.00;;;;;;20836460;28;20475;-58
2023/04/24 19:16:42;;;;;;;3.03;1.60;;;24.00;33.40;;;;;;20835274;28;20053;-57
2023/04/24 19:26:44;;;;;;;3.90;1.60;;;23.70;33.90;;;;;;20835359;28;20049;-58
2023/04/24 19:36:45;;;;;;;2.97;1.65;;;23.60;33.00;;;;;;20835143;28;20041;-58
2023/04/24 19:46:47;;;;;;;4.05;1.52;;;23.40;33.20;;;;;;20834585;28;20053;-59
2023/04/24 19:56:48;;;;;;;5.78;1.77;;;23.10;33.00;;;;;;20833761;28;20050;-58
2023/04/24 20:06:50;;;;;;;4.20;1.73;;;22.90;33.60;;;;;;20833060;28;20049;-59
2023/04/24 20:16:53;;;;;;;5.70;2.10;;;22.80;34.00;;;;;;20830866;28;20107;-57
2023/04/24 20:26:55;;;;;;;3.45;1.70;;;22.70;34.70;;;;;;20830430;28;20042;-58
2023/04/24 20:36:58;;;;;;;3.83;1.30;;;22.50;35.50;;;;;;20830773;28;20057;-58
2023/04/24 20:46:59;;;;;;;3.93;1.60;;;22.30;36.00;;;;;;20829683;28;20111;-58
2023/04/24 20:57:00;;;;;;;5.45;2.40;;;22.20;36.40;;;;;;20829952;28;20489;-60
2023/04/24 21:07:02;;;;;;;4.22;1.70;;;22.20;36.70;;;;;;20829166;28;20052;-58
2023/04/24 21:17:03;;;;;;;4.65;1.55;;;21.90;37.50;;;;;;20827750;28;20368;-58
2023/04/24 21:27:06;;;;;;;4.63;1.73;;;21.70;38.10;;;;;;20829621;28;20487;-58
2023/04/24 21:37:07;;;;;;;4.93;1.58;;;21.60;38.70;;;;;;20844114;28;20060;-59
2023/04/24 21:47:09;;;;;;;3.95;1.50;;;21.50;39.60;;;;;;20844154;28;20045;-58
2023/04/24 21:57:11;;;;;;;3.67;1.45;;;21.40;40.30;;;;;;20842886;28;20049;-58
2023/04/24 22:07:13;;;;;;;2.40;1.67;;;21.30;40.80;;;;;;20842072;28;20088;-59
2023/04/24 22:17:16;;;;;;;3.03;1.10;;;21.20;41.40;;;;;;20840651;28;20053;-58
2023/04/24 22:27:17;;;;;;;1.98;1.10;;;21.20;42.20;;;;;;20840704;28;20056;-58
2023/04/24 22:37:18;;;;;;;2.67;1.27;;;21.00;43.10;;;;;;20841304;28;20411;-56
2023/04/24 22:47:20;;;;;;;1.92;1.00;;;20.90;43.90;;;;;;20840448;28;20068;-58
2023/04/24 22:57:21;;;;;;;4.95;1.02;;;20.70;44.90;;;;;;20839762;28;20160;-58
2023/04/24 23:07:22;;;;;;;3.33;1.52;;;20.70;45.60;;;;;;20839305;28;20417;-57
2023/04/24 23:17:24;;;;;;;3.60;1.20;;;20.50;46.20;;;;;;20837377;28;20050;-57
2023/04/24 23:27:25;;;;;;;1.75;1.05;;;20.40;47.00;;;;;;20836042;28;20041;-57
2023/04/24 23:37:27;;;;;;;3.78;1.08;;;20.30;47.60;;;;;;20835384;28;20515;-57
2023/04/24 23:47:28;;;;;;;3.15;1.13;;;20.20;48.00;;;;;;20834707;28;20057;-57
2023/04/24 23:57:31;;;;;;;2.33;1.00;;;20.20;48.40;;;;;;20834206;28;20045;-58
